createdAt,value
2023-05-13T00:00:18.199Z,102268.13
2023-05-13T00:02:45.030Z,102270.56
2023-05-13T00:05:11.621Z,102266.94
2023-05-13T00:07:38.260Z,102267.66
2023-05-13T00:10:05.137Z,102267.47
2023-05-13T00:12:31.829Z,102262.94
2023-05-13T00:14:58.484Z,102274.88
2023-05-13T00:17:25.110Z,102281.47
2023-05-13T00:19:51.711Z,102273.91
2023-05-13T00:22:18.277Z,102271.69
2023-05-13T00:24:44.786Z,102259.81
2023-05-13T00:27:11.636Z,102270.44
2023-05-13T00:29:38.176Z,102265.22
2023-05-13T00:32:05.185Z,102265.97
2023-05-13T00:34:31.796Z,102266.75
2023-05-13T00:36:58.445Z,102265.16
2023-05-13T00:39:25.004Z,102262.63
2023-05-13T00:41:51.524Z,102261.63
2023-05-13T00:44:18.114Z,102262.34
2023-05-13T00:46:45.001Z,102268.44
2023-05-13T00:49:11.716Z,102265.75
2023-05-13T00:51:39.132Z,102264.75
2023-05-13T00:54:05.753Z,102266.47
2023-05-13T00:56:32.341Z,102261.88
2023-05-13T00:58:59.017Z,102264.25
2023-05-13T01:01:43.714Z,102263.31
2023-05-13T01:04:19.423Z,102262.28
2023-05-13T01:07:04.461Z,102257.97
2023-05-13T01:09:44.989Z,102260.56
2023-05-13T01:12:45.285Z,102259.66
2023-05-13T01:15:19.001Z,102261.41
2023-05-13T01:17:58.145Z,102263.19
2023-05-13T01:20:27.165Z,102259.00
2023-05-13T01:22:53.982Z,102256.50
2023-05-13T01:25:20.586Z,102268.88
2023-05-13T01:27:47.308Z,102260.25
2023-05-13T01:30:14.244Z,102255.94
2023-05-13T01:35:15.262Z,102264.88
2023-05-13T01:37:42.682Z,102238.69
2023-05-13T01:40:24.111Z,102245.59
2023-05-13T01:42:57.289Z,102261.34
2023-05-13T01:45:23.892Z,102268.19
2023-05-13T01:47:50.626Z,102231.50
2023-05-13T01:50:17.320Z,102259.53
2023-05-13T01:52:43.987Z,102236.69
2023-05-13T01:55:11.446Z,102242.00
2023-05-13T01:57:38.051Z,102254.13
2023-05-13T02:00:06.294Z,102252.25
2023-05-13T02:02:32.847Z,102257.53
2023-05-13T02:04:59.422Z,102249.75
2023-05-13T02:07:26.045Z,102254.91
2023-05-13T02:09:59.537Z,102244.53
2023-05-13T02:12:27.269Z,102259.38
2023-05-13T02:14:54.714Z,102258.59
2023-05-13T02:17:22.635Z,102242.84
2023-05-13T02:19:49.401Z,102258.47
2023-05-13T02:22:16.385Z,102248.91
2023-05-13T02:24:43.149Z,102222.53
2023-05-13T02:27:12.570Z,102249.50
2023-05-13T02:29:39.266Z,102243.31
2023-05-13T02:32:06.175Z,102250.31
2023-05-13T02:34:32.861Z,102256.97
2023-05-13T02:36:59.435Z,102248.19
2023-05-13T02:39:25.985Z,102261.22
2023-05-13T02:41:52.519Z,102267.31
2023-05-13T02:44:19.056Z,102228.06
2023-05-13T02:46:45.646Z,102226.38
2023-05-13T02:49:12.497Z,102264.03
2023-05-13T02:51:39.023Z,102262.25
2023-05-13T02:54:06.065Z,102257.94
2023-05-13T02:56:32.605Z,102259.44
2023-05-13T02:58:59.148Z,102218.47
2023-05-13T03:01:26.967Z,102262.13
2023-05-13T03:03:53.610Z,102252.66
2023-05-13T03:06:20.214Z,102234.19
2023-05-13T03:08:46.767Z,102260.25
2023-05-13T03:11:13.387Z,102207.00
2023-05-13T03:13:39.927Z,102261.88
2023-05-13T03:16:06.524Z,102240.97
2023-05-13T03:18:33.259Z,102261.75
2023-05-13T03:20:59.890Z,102240.88
2023-05-13T03:23:26.522Z,102246.16
2023-05-13T03:25:53.074Z,102257.34
2023-05-13T03:28:19.622Z,102247.00
2023-05-13T03:30:46.322Z,102246.78
2023-05-13T03:33:12.893Z,102259.72
2023-05-13T03:35:39.480Z,102262.97
2023-05-13T03:38:06.101Z,102267.25
2023-05-13T03:40:32.741Z,102271.63
2023-05-13T03:42:59.295Z,102274.19
2023-05-13T03:45:26.016Z,102268.13
2023-05-13T03:47:52.738Z,102257.63
2023-05-13T03:50:19.572Z,102268.22
2023-05-13T03:52:47.205Z,102248.09
2023-05-13T03:55:15.076Z,102276.03
2023-05-13T03:57:49.183Z,102279.63
2023-05-13T04:00:15.980Z,102267.34
2023-05-13T04:02:42.955Z,102269.03
2023-05-13T04:05:10.018Z,102287.34
2023-05-13T04:07:36.717Z,102278.69
2023-05-13T04:10:03.438Z,102267.25
2023-05-13T04:12:30.968Z,102289.19
2023-05-13T04:14:57.582Z,102279.75
2023-05-13T04:17:24.345Z,102285.78
2023-05-13T04:19:54.806Z,102275.28
2023-05-13T04:22:21.932Z,102287.41
2023-05-13T04:24:51.973Z,102295.22
2023-05-13T04:27:18.664Z,102285.56
2023-05-13T04:29:45.283Z,102291.66
2023-05-13T04:32:16.080Z,102286.31
2023-05-13T04:34:42.882Z,102301.06
2023-05-13T04:37:09.476Z,102239.88
2023-05-13T04:39:36.107Z,102299.19
2023-05-13T04:42:02.710Z,102170.75
2023-05-13T04:44:29.311Z,102183.03
2023-05-13T04:46:55.860Z,102289.47
2023-05-13T04:49:22.565Z,102288.69
2023-05-13T04:51:49.414Z,102240.56
2023-05-13T04:54:16.571Z,102236.41
2023-05-13T04:56:43.202Z,102278.41
2023-05-13T04:59:10.007Z,102307.50
2023-05-13T05:01:36.579Z,102254.34
2023-05-13T05:04:03.339Z,102315.84
2023-05-13T05:06:29.918Z,102292.41
2023-05-13T05:08:56.447Z,102307.00
2023-05-13T05:11:23.026Z,102315.31
2023-05-13T05:13:49.663Z,102304.69
2023-05-13T05:16:16.409Z,102273.69
2023-05-13T05:18:43.622Z,102293.59
2023-05-13T05:21:10.384Z,102275.81
2023-05-13T05:23:36.954Z,102279.81
2023-05-13T05:26:11.273Z,102293.34
2023-05-13T05:28:40.105Z,102310.38
2023-05-13T05:31:07.185Z,102303.50
2023-05-13T05:33:34.262Z,102306.38
2023-05-13T05:36:00.844Z,102280.38
2023-05-13T05:38:27.621Z,102282.44
2023-05-13T05:40:54.284Z,102285.31
2023-05-13T05:43:20.903Z,102286.25
2023-05-13T05:45:47.446Z,102290.75
2023-05-13T05:48:14.038Z,102255.13
2023-05-13T05:50:41.508Z,102278.66
2023-05-13T05:53:08.105Z,102274.47
2023-05-13T05:55:34.658Z,102290.19
2023-05-13T05:58:05.612Z,102291.94
2023-05-13T06:00:33.377Z,102289.41
2023-05-13T06:03:00.183Z,102279.88
2023-05-13T06:05:27.000Z,102283.41
2023-05-13T06:07:53.638Z,102285.09
2023-05-13T06:10:20.492Z,102292.97
2023-05-13T06:12:47.133Z,102255.56
2023-05-13T06:15:13.719Z,102298.19
2023-05-13T06:17:40.348Z,102283.25
2023-05-13T06:20:07.364Z,102256.28
2023-05-13T06:22:34.336Z,102272.84
2023-05-13T06:25:00.853Z,102294.66
2023-05-13T06:27:27.725Z,102231.22
2023-05-13T06:29:54.343Z,102299.97
2023-05-13T06:32:20.966Z,102290.47
2023-05-13T06:34:48.452Z,102267.94
2023-05-13T06:37:15.447Z,102294.91
2023-05-13T06:39:42.028Z,102268.81
2023-05-13T06:42:08.582Z,102294.88
2023-05-13T06:44:35.217Z,102289.66
2023-05-13T06:47:03.084Z,102278.34
2023-05-13T06:49:29.735Z,102211.38
2023-05-13T06:51:56.690Z,102287.06
2023-05-13T06:54:23.294Z,102279.19
2023-05-13T06:56:49.886Z,102274.88
2023-05-13T06:59:16.526Z,102295.78
2023-05-13T07:01:43.189Z,102294.00
2023-05-13T07:04:09.864Z,102299.22
2023-05-13T07:06:36.671Z,102304.44
2023-05-13T07:09:08.105Z,102289.66
2023-05-13T07:11:36.063Z,102300.94
2023-05-13T07:14:02.706Z,102297.50
2023-05-13T07:16:29.330Z,102302.69
2023-05-13T07:18:55.902Z,102289.66
2023-05-13T07:21:22.505Z,102286.19
2023-05-13T07:23:49.073Z,102287.06
2023-05-13T07:26:15.764Z,102291.41
2023-05-13T07:28:43.410Z,102299.22
2023-05-13T07:31:10.387Z,102283.53
2023-05-13T07:33:37.203Z,102305.28
2023-05-13T07:36:04.167Z,102282.69
2023-05-13T07:38:30.741Z,102295.72
2023-05-13T07:40:57.360Z,102285.28
2023-05-13T07:43:25.385Z,102296.59
2023-05-13T07:45:52.406Z,102310.47
2023-05-13T07:48:19.655Z,102289.63
2023-05-13T07:50:46.917Z,102317.44
2023-05-13T07:53:13.566Z,102291.38
2023-05-13T07:55:40.165Z,102315.72
2023-05-13T07:58:06.758Z,102314.84
2023-05-13T08:00:33.723Z,102316.63
2023-05-13T08:03:00.489Z,102300.94
2023-05-13T08:05:27.139Z,102322.72
2023-05-13T08:07:53.669Z,102312.28
2023-05-13T08:10:20.333Z,102297.50
2023-05-13T08:12:54.288Z,102311.38
2023-05-13T08:15:21.124Z,102316.59
2023-05-13T08:17:48.185Z,102317.44
2023-05-13T08:20:15.302Z,102299.22
2023-05-13T08:22:43.696Z,102304.41
2023-05-13T08:25:11.481Z,102313.13
2023-05-13T08:27:38.155Z,102315.78
2023-05-13T08:30:05.893Z,102320.06
2023-05-13T08:32:32.517Z,102314.00
2023-05-13T08:34:59.394Z,102308.78
2023-05-13T08:37:26.014Z,102301.81
2023-05-13T08:39:52.596Z,102306.19
2023-05-13T08:42:22.293Z,102307.00
2023-05-13T08:44:49.169Z,102305.28
2023-05-13T08:47:39.472Z,102302.63
2023-05-13T08:50:07.283Z,102297.13
2023-05-13T08:52:33.961Z,102303.94
2023-05-13T08:55:01.707Z,102305.91
2023-05-13T08:57:28.349Z,102309.53
2023-05-13T08:59:54.918Z,102313.84
2023-05-13T09:02:22.912Z,102316.47
2023-05-13T09:04:54.867Z,102294.59
2023-05-13T09:07:21.522Z,102304.16
2023-05-13T09:09:48.285Z,102292.97
2023-05-13T09:12:53.416Z,102311.13
2023-05-13T09:15:22.964Z,102304.13
2023-05-13T09:18:02.069Z,102312.75
2023-05-13T09:20:29.082Z,102311.00
2023-05-13T09:23:01.640Z,102306.69
2023-05-13T09:25:29.641Z,102302.31
2023-05-13T09:28:00.658Z,102310.13
2023-05-13T09:30:33.706Z,102303.22
2023-05-13T09:33:17.407Z,102313.59
2023-05-13T09:35:49.124Z,102316.25
2023-05-13T09:38:26.928Z,102306.50
2023-05-13T09:40:58.205Z,102312.41
2023-05-13T09:43:26.912Z,102314.88
2023-05-13T09:45:55.262Z,102294.22
2023-05-13T09:48:26.769Z,102303.75
2023-05-13T09:50:55.060Z,102311.53
2023-05-13T09:53:21.881Z,102308.97
2023-05-13T09:55:52.747Z,102307.19
2023-05-13T09:58:20.491Z,102315.03
2023-05-13T10:00:48.052Z,102302.16
2023-05-13T10:03:15.261Z,102305.66
2023-05-13T10:05:42.589Z,102308.94
2023-05-13T10:08:18.380Z,102303.63
2023-05-13T10:10:47.043Z,102307.19
2023-05-13T10:13:18.943Z,102292.28
2023-05-13T10:15:50.966Z,102305.47
2023-05-13T10:18:18.895Z,102306.22
2023-05-13T10:20:46.284Z,102289.66
2023-05-13T10:23:13.313Z,102304.38
2023-05-13T10:25:41.730Z,102301.78
2023-05-13T10:28:10.006Z,102286.81
2023-05-13T10:30:37.809Z,102294.41
2023-05-13T10:33:04.576Z,102297.13
2023-05-13T10:35:38.614Z,102299.69
2023-05-13T10:38:43.578Z,102287.63
2023-05-13T10:41:47.701Z,102293.91
2023-05-13T10:44:14.266Z,102283.25
2023-05-13T10:46:43.118Z,102265.81
2023-05-13T10:49:16.147Z,102275.44
2023-05-13T10:51:49.945Z,102277.47
2023-05-13T10:54:24.892Z,102273.09
2023-05-13T10:56:58.447Z,102279.09
2023-05-13T10:59:25.666Z,102274.50
2023-05-13T11:01:52.206Z,102270.88
2023-05-13T11:04:21.628Z,102276.13
2023-05-13T11:06:50.773Z,102271.72
2023-05-13T11:09:20.447Z,102276.09
2023-05-13T11:11:48.606Z,102272.59
2023-05-13T11:14:20.864Z,102256.84
2023-05-13T11:17:04.399Z,102271.63
2023-05-13T11:19:32.338Z,102262.78
2023-05-13T11:22:10.437Z,102263.78
2023-05-13T11:24:37.177Z,102269.78
2023-05-13T11:27:43.785Z,102267.28
2023-05-13T11:30:26.301Z,102259.84
2023-05-13T11:32:56.996Z,102257.78
2023-05-13T11:35:29.089Z,102256.06
2023-05-13T11:37:59.645Z,102250.44
2023-05-13T11:40:30.565Z,102255.09
2023-05-13T11:42:58.524Z,102253.34
2023-05-13T11:45:26.021Z,102255.47
2023-05-13T11:47:53.572Z,102261.47
2023-05-13T11:50:30.804Z,102249.41
2023-05-13T11:52:59.331Z,102251.97
2023-05-13T11:55:32.639Z,102248.06
2023-05-13T11:58:00.261Z,102239.56
2023-05-13T12:00:27.591Z,102247.31
2023-05-13T12:02:54.645Z,102234.06
2023-05-13T12:05:22.056Z,102237.53
2023-05-13T12:07:49.420Z,102237.59
2023-05-13T12:10:16.605Z,102241.72
2023-05-13T12:12:46.318Z,102243.25
2023-05-13T12:15:22.620Z,102226.38
2023-05-13T12:17:50.238Z,102231.56
2023-05-13T12:20:24.259Z,102234.06
2023-05-13T12:22:53.332Z,102229.66
2023-05-13T12:25:35.367Z,102225.31
2023-05-13T12:28:09.192Z,102218.72
2023-05-13T12:30:37.753Z,102215.47
2023-05-13T12:33:08.083Z,102217.91
2023-05-13T12:35:34.872Z,102215.16
2023-05-13T12:38:03.448Z,102224.53
2023-05-13T12:40:30.824Z,102233.25
2023-05-13T12:43:01.691Z,102217.06
2023-05-13T12:45:30.488Z,102223.34
2023-05-13T12:47:57.690Z,102219.97
2023-05-13T12:50:24.557Z,102215.06
2023-05-13T12:52:51.853Z,102221.34
2023-05-13T12:55:18.883Z,102221.56
2023-05-13T12:58:03.976Z,102220.03
2023-05-13T13:00:31.028Z,102221.88
2023-05-13T13:02:58.004Z,102219.94
2023-05-13T13:05:25.649Z,102219.16
2023-05-13T13:07:52.277Z,102215.63
2023-05-13T13:10:19.028Z,102217.94
2023-05-13T13:12:45.804Z,102222.09
2023-05-13T13:15:12.876Z,102221.44
2023-05-13T13:17:39.680Z,102217.59
2023-05-13T13:20:07.316Z,102219.38
2023-05-13T13:22:37.096Z,102213.25
2023-05-13T13:25:07.715Z,102211.59
2023-05-13T13:27:35.061Z,102212.28
2023-05-13T13:30:01.988Z,102212.25
2023-05-13T13:32:28.750Z,102203.47
2023-05-13T13:34:55.884Z,102211.88
2023-05-13T13:37:22.516Z,102198.59
2023-05-13T13:39:49.118Z,102206.47
2023-05-13T13:42:15.812Z,102196.91
2023-05-13T13:44:42.702Z,102206.16
2023-05-13T13:47:09.651Z,102191.38
2023-05-13T13:49:36.308Z,102200.16
2023-05-13T13:52:02.922Z,102197.56
2023-05-13T13:54:29.494Z,102203.66
2023-05-13T13:56:59.479Z,102200.31
2023-05-13T14:00:45.056Z,102196.72
2023-05-13T14:03:11.787Z,102140.31
2023-05-13T14:05:41.435Z,102170.66
2023-05-13T14:08:08.047Z,102181.94
2023-05-13T14:14:33.859Z,102151.56
2023-05-13T14:49:33.441Z,102145.03
2023-05-13T14:52:00.082Z,102176.22
2023-05-13T14:54:26.966Z,102163.31
2023-05-13T14:56:53.647Z,102149.53
2023-05-13T14:59:22.971Z,102168.53
2023-05-13T15:01:51.631Z,102136.53
2023-05-13T15:04:18.195Z,102166.97
2023-05-13T15:06:44.875Z,102140.03
2023-05-13T15:09:11.508Z,102170.44
2023-05-13T15:11:40.538Z,102156.56
2023-05-13T15:14:37.510Z,102126.94
2023-05-13T15:17:14.580Z,102148.75
2023-05-13T15:19:42.480Z,102146.34
2023-05-13T15:22:09.084Z,102149.78
2023-05-13T15:24:35.743Z,102152.31
2023-05-13T15:27:03.852Z,102159.25
2023-05-13T15:29:30.497Z,102137.53
2023-05-13T15:31:58.515Z,102135.09
2023-05-13T15:34:26.619Z,102150.84
2023-05-13T15:36:53.522Z,102121.38
2023-05-13T15:39:23.101Z,102131.59
2023-05-13T15:41:49.772Z,102150.75
2023-05-13T15:44:16.367Z,102157.06
2023-05-13T15:46:43.163Z,102171.16
2023-05-13T15:49:09.802Z,102161.44
2023-05-13T15:51:36.606Z,102147.59
2023-05-13T15:54:03.321Z,102153.78
2023-05-13T15:56:29.961Z,102146.72
2023-05-13T15:58:58.999Z,102144.91
2023-05-13T16:01:25.638Z,102142.31
2023-05-13T16:03:52.201Z,102137.28
2023-05-13T16:06:18.748Z,102125.13
2023-05-13T16:08:45.482Z,102136.38
2023-05-13T16:11:14.921Z,102115.53
2023-05-13T16:13:41.687Z,102139.78
2023-05-13T16:16:08.302Z,102133.91
2023-05-13T16:18:34.939Z,102139.13
2023-05-13T16:21:01.626Z,102114.84
2023-05-13T16:23:28.850Z,102127.00
2023-05-13T16:25:55.461Z,102137.50
2023-05-13T16:28:22.091Z,102127.91
2023-05-13T16:30:48.680Z,102139.22
2023-05-13T16:33:17.875Z,102131.44
2023-05-13T16:35:44.513Z,102137.50
2023-05-13T16:38:11.318Z,102131.50
2023-05-13T16:40:38.130Z,102121.19
2023-05-13T16:43:04.773Z,102133.31
2023-05-13T16:48:17.155Z,102096.09
2023-05-13T16:50:43.888Z,102131.50
2023-05-13T16:53:10.500Z,102094.22
2023-05-13T16:55:37.128Z,102119.47
2023-05-13T16:58:03.733Z,102122.94
2023-05-13T17:00:52.934Z,102102.13
2023-05-13T17:03:22.761Z,102086.56
2023-05-13T17:05:49.565Z,102094.41
2023-05-13T17:08:18.906Z,102122.19
2023-05-13T17:10:45.528Z,102122.19
2023-05-13T17:13:12.120Z,102112.69
2023-05-13T17:15:38.765Z,102121.41
2023-05-13T17:18:05.485Z,102118.78
2023-05-13T17:20:32.119Z,102126.69
2023-05-13T17:23:02.779Z,102114.53
2023-05-13T17:25:29.382Z,102119.78
2023-05-13T17:27:55.990Z,102112.88
2023-05-13T17:30:23.015Z,102115.53
2023-05-13T17:32:52.600Z,102100.00
2023-05-13T17:35:19.273Z,102107.84
2023-05-13T17:37:45.989Z,102112.22
2023-05-13T17:40:13.013Z,102116.59
2023-05-13T17:42:39.640Z,102114.00
2023-05-13T17:45:09.324Z,102113.13
2023-05-13T17:47:36.188Z,102111.41
2023-05-13T17:50:04.818Z,102101.00
2023-05-13T17:52:34.572Z,102086.22
2023-05-13T17:55:01.126Z,102126.19
2023-05-13T17:57:27.996Z,102121.00
2023-05-13T17:59:54.594Z,102085.38
2023-05-13T18:02:21.203Z,102105.34
2023-05-13T18:04:47.919Z,102127.91
2023-05-13T18:07:14.612Z,102092.31
2023-05-13T18:09:42.679Z,102107.94
2023-05-13T18:12:12.082Z,102118.38
2023-05-13T18:14:41.381Z,102108.81
2023-05-13T18:17:10.167Z,102116.63
2023-05-13T18:19:36.940Z,102113.13
2023-05-13T18:22:10.669Z,102131.38
2023-05-13T18:24:43.440Z,102127.03
2023-05-13T18:27:13.070Z,102131.34
2023-05-13T18:29:42.001Z,102120.91
2023-05-13T18:32:10.974Z,102135.66
2023-05-13T18:34:37.792Z,102131.28
2023-05-13T18:37:16.094Z,102160.81
2023-05-13T18:39:48.658Z,102140.81
2023-05-13T18:42:16.962Z,102148.63
2023-05-13T18:44:46.418Z,102138.09
2023-05-13T18:47:13.035Z,102156.41
2023-05-13T18:49:44.750Z,102150.25
2023-05-13T18:52:11.657Z,102146.69
2023-05-13T18:54:41.300Z,102144.13
2023-05-13T18:57:13.756Z,102178.03
2023-05-13T18:59:44.974Z,102184.03
2023-05-13T19:02:11.763Z,102151.84
2023-05-13T19:04:40.773Z,102182.25
2023-05-13T19:07:07.500Z,102155.19
2023-05-13T19:09:36.001Z,102163.03
2023-05-13T19:12:05.267Z,102196.00
2023-05-13T19:14:31.892Z,102167.31
2023-05-13T19:16:58.566Z,102163.75
2023-05-13T19:19:25.361Z,102160.19
2023-05-13T19:21:55.045Z,102168.88
2023-05-13T19:24:21.649Z,102141.91
2023-05-13T19:26:48.330Z,102167.97
2023-05-13T19:29:15.007Z,102167.00
2023-05-13T19:31:41.655Z,102180.03
2023-05-13T19:34:08.292Z,102166.00
2023-05-13T19:36:34.949Z,102160.66
2023-05-13T19:39:01.674Z,102178.97
2023-05-13T19:41:28.280Z,102204.19
2023-05-13T19:43:57.684Z,102156.31
2023-05-13T19:46:24.561Z,102191.94
2023-05-13T19:48:51.261Z,102162.38
2023-05-13T19:51:20.008Z,102198.06
2023-05-13T19:53:48.568Z,102161.41
2023-05-13T19:56:15.360Z,102169.16
2023-05-13T19:58:47.342Z,102151.69
2023-05-13T20:01:19.037Z,102203.00
2023-05-13T20:03:46.229Z,102185.44
2023-05-13T20:06:13.215Z,102163.66
2023-05-13T20:08:42.028Z,102183.69
2023-05-13T20:11:08.705Z,102160.09
2023-05-13T20:13:35.752Z,102188.03
2023-05-13T20:16:04.970Z,102208.06
2023-05-13T20:18:33.888Z,102208.00
2023-05-13T20:21:01.293Z,102188.75
2023-05-13T20:23:30.789Z,102179.16
2023-05-13T20:25:58.303Z,102153.88
2023-05-13T20:28:27.646Z,102158.19
2023-05-13T20:30:55.758Z,102194.78
2023-05-13T20:33:22.417Z,102208.63
2023-05-13T20:35:49.346Z,102222.50
2023-05-13T20:38:15.931Z,102215.50
2023-05-13T20:40:42.507Z,102206.72
2023-05-13T20:43:09.253Z,102219.75
2023-05-13T20:45:39.271Z,102219.81
2023-05-13T20:48:08.013Z,102225.88
2023-05-13T20:50:35.872Z,102225.88
2023-05-13T20:53:02.490Z,102225.75
2023-05-13T20:55:29.099Z,102217.06
2023-05-13T20:57:55.904Z,102207.44
2023-05-13T21:00:22.807Z,102219.63
2023-05-13T21:02:50.497Z,102228.22
2023-05-13T21:05:17.194Z,102209.97
2023-05-13T21:07:43.738Z,102212.59
2023-05-13T21:10:10.522Z,102225.63
2023-05-13T21:12:38.713Z,102223.00
2023-05-13T21:15:05.885Z,102208.13
2023-05-13T21:17:32.478Z,102211.47
2023-05-13T21:19:59.102Z,102220.19
2023-05-13T21:22:25.723Z,102218.38
2023-05-13T21:24:52.271Z,102211.34
2023-05-13T21:27:18.915Z,102218.25
2023-05-13T21:29:45.537Z,102204.16
2023-05-13T21:32:12.260Z,102207.59
2023-05-13T21:34:39.016Z,102218.97
2023-05-13T21:37:08.656Z,102179.56
2023-05-13T21:39:42.864Z,102211.78
2023-05-13T21:42:09.516Z,102184.78
2023-05-13T21:44:38.626Z,102196.94
2023-05-13T21:47:10.444Z,102192.59
2023-05-13T21:49:40.012Z,102173.38
2023-05-13T21:52:09.789Z,102186.41
2023-05-13T21:54:39.324Z,102168.00
2023-05-13T21:57:10.105Z,102195.88
2023-05-13T21:59:36.730Z,102208.91
2023-05-13T22:02:03.418Z,102170.59
2023-05-13T22:04:30.154Z,102201.81
2023-05-13T22:07:05.915Z,102183.53
2023-05-13T22:09:32.531Z,102217.44
2023-05-13T22:11:59.272Z,102171.09
2023-05-13T22:14:26.332Z,102177.25
2023-05-13T22:17:07.786Z,102218.94
2023-05-13T22:19:36.157Z,102200.56
2023-05-13T22:22:02.882Z,102224.81
2023-05-13T22:24:29.461Z,102226.47
2023-05-13T22:26:56.086Z,102229.09
2023-05-13T22:29:22.628Z,102216.97
2023-05-13T22:31:49.281Z,102198.56
2023-05-13T22:34:18.758Z,102208.16
2023-05-13T22:36:45.379Z,102209.91
2023-05-13T22:39:12.376Z,102222.81
2023-05-13T22:41:38.985Z,102221.84
2023-05-13T22:44:05.708Z,102205.34
2023-05-13T22:46:32.448Z,102203.59
2023-05-13T22:48:59.093Z,102210.50
2023-05-13T22:51:25.625Z,102199.94
2023-05-13T22:53:52.208Z,102195.63
2023-05-13T22:56:18.758Z,102206.06
2023-05-13T22:58:46.110Z,102208.66
2023-05-13T23:01:13.033Z,102201.63
2023-05-13T23:03:39.695Z,102202.50
2023-05-13T23:06:06.407Z,102201.63
2023-05-13T23:08:36.029Z,102194.66
2023-05-13T23:11:02.632Z,102190.38
2023-05-13T23:13:29.205Z,102185.16
2023-05-13T23:15:55.972Z,102184.31
2023-05-13T23:18:22.562Z,102193.91
2023-05-13T23:20:53.315Z,102177.38
2023-05-13T23:23:19.989Z,102190.47
2023-05-13T23:25:47.318Z,102180.09
2023-05-13T23:28:14.284Z,102187.03
2023-05-13T23:30:41.303Z,102195.66
2023-05-13T23:33:08.193Z,102188.69
2023-05-13T23:35:35.359Z,102187.00
2023-05-13T23:38:02.278Z,102181.75
2023-05-13T23:40:28.967Z,102176.56
2023-05-13T23:42:55.600Z,102185.19
2023-05-13T23:45:25.322Z,102183.59
2023-05-13T23:47:57.336Z,102167.00
2023-05-13T23:50:28.455Z,102126.84
2023-05-13T23:52:55.111Z,102125.00
2023-05-13T23:55:24.292Z,102138.94
2023-05-13T23:57:50.959Z,102124.22
